sensor_id;sensor_type;location;lat;lon;timestamp;pressure;altitude;pressure_sealevel;temperature;humidity
70571;BME280;58135;50.948;-1.458;2023-01-29T00:00:23;102836.18;;;10.04;30.08
70571;BME280;58135;50.948;-1.458;2023-01-29T00:01:23;102838.65;;;10.07;30.07
70571;BME280;58135;50.948;-1.458;2023-01-29T00:02:24;102838.58;;;10.05;30.04
70571;BME280;58135;50.948;-1.458;2023-01-29T00:03:24;102839.96;;;10.04;30.09
70571;BME280;58135;50.948;-1.458;2023-01-29T00:04:25;102837.65;;;9.59;30.09
70571;BME280;58135;50.948;-1.458;2023-01-29T00:05:24;102838.06;;;10.06;30.10
70571;BME280;58135;50.948;-1.458;2023-01-29T00:06:25;102840.97;;;10.07;30.14
70571;BME280;58135;50.948;-1.458;2023-01-29T00:07:26;102842.92;;;10.06;30.16
70571;BME280;58135;50.948;-1.458;2023-01-29T00:08:26;102844.17;;;10.09;30.16
70571;BME280;58135;50.948;-1.458;2023-01-29T00:09:27;102841.63;;;9.15;30.14
70571;BME280;58135;50.948;-1.458;2023-01-29T00:10:27;102840.12;;;10.09;30.13
70571;BME280;58135;50.948;-1.458;2023-01-29T00:11:28;102840.56;;;10.13;30.11
70571;BME280;58135;50.948;-1.458;2023-01-29T00:12:28;102841.78;;;9.70;30.14
70571;BME280;58135;50.948;-1.458;2023-01-29T00:13:29;102845.86;;;9.24;30.14
70571;BME280;58135;50.948;-1.458;2023-01-29T00:14:30;102846.13;;;9.66;30.15
70571;BME280;58135;50.948;-1.458;2023-01-29T00:15:30;102839.96;;;9.54;30.20
70571;BME280;58135;50.948;-1.458;2023-01-29T00:16:31;102838.27;;;9.51;30.19
70571;BME280;58135;50.948;-1.458;2023-01-29T00:17:31;102835.07;;;9.53;30.23
70571;BME280;58135;50.948;-1.458;2023-01-29T00:18:31;102833.12;;;9.56;30.24
70571;BME280;58135;50.948;-1.458;2023-01-29T00:19:32;102832.04;;;10.07;30.22
70571;BME280;58135;50.948;-1.458;2023-01-29T00:20:33;102834.05;;;9.66;30.21
70571;BME280;58135;50.948;-1.458;2023-01-29T00:21:33;102835.64;;;10.10;30.20
70571;BME280;58135;50.948;-1.458;2023-01-29T00:22:34;102832.73;;;9.58;30.19
70571;BME280;58135;50.948;-1.458;2023-01-29T00:23:34;102832.15;;;10.05;30.18
70571;BME280;58135;50.948;-1.458;2023-01-29T00:24:35;102830.09;;;10.03;30.15
70571;BME280;58135;50.948;-1.458;2023-01-29T00:25:35;102831.76;;;9.57;30.16
70571;BME280;58135;50.948;-1.458;2023-01-29T00:26:36;102835.70;;;9.54;30.12
70571;BME280;58135;50.948;-1.458;2023-01-29T00:27:36;102837.00;;;9.49;30.15
70571;BME280;58135;50.948;-1.458;2023-01-29T00:28:36;102835.66;;;9.90;30.20
70571;BME280;58135;50.948;-1.458;2023-01-29T00:29:37;102834.95;;;9.87;30.22
70571;BME280;58135;50.948;-1.458;2023-01-29T00:30:38;102832.81;;;9.87;30.28
70571;BME280;58135;50.948;-1.458;2023-01-29T00:31:38;102832.30;;;9.85;30.28
70571;BME280;58135;50.948;-1.458;2023-01-29T00:32:38;102831.83;;;9.39;30.29
70571;BME280;58135;50.948;-1.458;2023-01-29T00:33:39;102836.39;;;9.87;30.34
70571;BME280;58135;50.948;-1.458;2023-01-29T00:34:40;102837.37;;;9.02;30.32
70571;BME280;58135;50.948;-1.458;2023-01-29T00:35:40;102836.98;;;9.98;30.31
70571;BME280;58135;50.948;-1.458;2023-01-29T00:36:42;102833.79;;;9.97;30.28
70571;BME280;58135;50.948;-1.458;2023-01-29T00:37:41;102833.28;;;9.94;30.29
70571;BME280;58135;50.948;-1.458;2023-01-29T00:38:41;102833.70;;;9.89;30.32
70571;BME280;58135;50.948;-1.458;2023-01-29T00:39:42;102833.93;;;9.84;30.39
70571;BME280;58135;50.948;-1.458;2023-01-29T00:40:43;102838.34;;;9.86;30.41
70571;BME280;58135;50.948;-1.458;2023-01-29T00:41:43;102837.87;;;9.87;30.44
70571;BME280;58135;50.948;-1.458;2023-01-29T00:42:44;102836.05;;;9.89;30.47
70571;BME280;58135;50.948;-1.458;2023-01-29T00:43:44;102836.38;;;9.91;30.47
70571;BME280;58135;50.948;-1.458;2023-01-29T00:44:45;102833.12;;;9.91;30.42
70571;BME280;58135;50.948;-1.458;2023-01-29T00:45:46;102834.24;;;9.95;30.40
70571;BME280;58135;50.948;-1.458;2023-01-29T00:46:46;102835.43;;;9.96;30.40
70571;BME280;58135;50.948;-1.458;2023-01-29T00:47:47;102838.15;;;9.97;30.39
70571;BME280;58135;50.948;-1.458;2023-01-29T00:48:47;102834.78;;;9.54;30.38
70571;BME280;58135;50.948;-1.458;2023-01-29T00:49:48;102831.38;;;10.01;30.38
70571;BME280;58135;50.948;-1.458;2023-01-29T00:50:49;102831.63;;;10.02;30.41
70571;BME280;58135;50.948;-1.458;2023-01-29T00:51:49;102831.04;;;10.03;30.41
70571;BME280;58135;50.948;-1.458;2023-01-29T00:52:50;102831.84;;;10.04;30.44
70571;BME280;58135;50.948;-1.458;2023-01-29T00:53:51;102833.47;;;9.59;30.45
70571;BME280;58135;50.948;-1.458;2023-01-29T00:54:53;102834.14;;;9.59;30.41
70571;BME280;58135;50.948;-1.458;2023-01-29T00:55:52;102833.17;;;10.04;30.41
70571;BME280;58135;50.948;-1.458;2023-01-29T00:56:53;102833.11;;;10.04;30.41
70571;BME280;58135;50.948;-1.458;2023-01-29T00:57:53;102831.97;;;10.05;30.36
70571;BME280;58135;50.948;-1.458;2023-01-29T00:58:54;102830.81;;;9.60;30.35
70571;BME280;58135;50.948;-1.458;2023-01-29T00:59:54;102831.81;;;10.05;30.31
70571;BME280;58135;50.948;-1.458;2023-01-29T01:00:54;102830.22;;;9.53;30.35
70571;BME280;58135;50.948;-1.458;2023-01-29T01:01:55;102828.78;;;9.93;30.36
70571;BME280;58135;50.948;-1.458;2023-01-29T01:02:55;102826.83;;;9.84;30.40
70571;BME280;58135;50.948;-1.458;2023-01-29T01:03:56;102822.86;;;9.78;30.49
70571;BME280;58135;50.948;-1.458;2023-01-29T01:04:56;102822.02;;;9.31;30.51
70571;BME280;58135;50.948;-1.458;2023-01-29T01:06:05;102821.20;;;9.72;30.52
70571;BME280;58135;50.948;-1.458;2023-01-29T01:06:57;102822.05;;;9.68;30.56
70571;BME280;58135;50.948;-1.458;2023-01-29T01:07:58;102822.26;;;9.66;30.57
70571;BME280;58135;50.948;-1.458;2023-01-29T01:08:58;102820.60;;;9.66;30.60
70571;BME280;58135;50.948;-1.458;2023-01-29T01:09:58;102818.05;;;9.25;30.61
70571;BME280;58135;50.948;-1.458;2023-01-29T01:11:00;102815.00;;;9.75;30.62
70571;BME280;58135;50.948;-1.458;2023-01-29T01:11:59;102812.37;;;9.33;30.58
70571;BME280;58135;50.948;-1.458;2023-01-29T01:13:01;102807.49;;;9.83;30.54
70571;BME280;58135;50.948;-1.458;2023-01-29T01:13:59;102808.30;;;9.90;30.52
70571;BME280;58135;50.948;-1.458;2023-01-29T01:15:00;102809.87;;;9.97;30.51
70571;BME280;58135;50.948;-1.458;2023-01-29T01:16:00;102810.23;;;9.96;30.47
70571;BME280;58135;50.948;-1.458;2023-01-29T01:17:01;102807.73;;;9.91;30.47
70571;BME280;58135;50.948;-1.458;2023-01-29T01:18:02;102805.95;;;9.87;30.50
70571;BME280;58135;50.948;-1.458;2023-01-29T01:19:02;102807.02;;;9.43;30.51
70571;BME280;58135;50.948;-1.458;2023-01-29T01:20:01;102808.60;;;10.33;30.50
70571;BME280;58135;50.948;-1.458;2023-01-29T01:21:02;102807.79;;;9.39;30.53
70571;BME280;58135;50.948;-1.458;2023-01-29T01:22:03;102806.08;;;9.85;30.55
70571;BME280;58135;50.948;-1.458;2023-01-29T01:23:03;102807.82;;;9.38;30.52
70571;BME280;58135;50.948;-1.458;2023-01-29T01:24:03;102809.54;;;9.36;30.57
70571;BME280;58135;50.948;-1.458;2023-01-29T01:25:05;102807.82;;;9.76;30.57
70571;BME280;58135;50.948;-1.458;2023-01-29T01:26:08;102805.72;;;9.72;30.59
70571;BME280;58135;50.948;-1.458;2023-01-29T01:27:06;102805.17;;;9.64;30.64
70571;BME280;58135;50.948;-1.458;2023-01-29T01:28:07;102804.35;;;9.14;30.68
70571;BME280;58135;50.948;-1.458;2023-01-29T01:29:07;102801.48;;;9.62;30.67
70571;BME280;58135;50.948;-1.458;2023-01-29T01:30:10;102798.66;;;9.66;30.65
70571;BME280;58135;50.948;-1.458;2023-01-29T01:31:09;102795.96;;;9.68;30.69
70571;BME280;58135;50.948;-1.458;2023-01-29T01:32:08;102796.11;;;9.77;30.69
70571;BME280;58135;50.948;-1.458;2023-01-29T01:33:08;102797.35;;;9.38;30.67
70571;BME280;58135;50.948;-1.458;2023-01-29T01:34:09;102797.04;;;9.89;30.65
70571;BME280;58135;50.948;-1.458;2023-01-29T01:35:10;102794.20;;;9.94;30.62
70571;BME280;58135;50.948;-1.458;2023-01-29T01:36:10;102796.28;;;9.96;30.57
70571;BME280;58135;50.948;-1.458;2023-01-29T01:37:10;102795.45;;;9.98;30.58
70571;BME280;58135;50.948;-1.458;2023-01-29T01:38:11;102796.75;;;9.99;30.59
70571;BME280;58135;50.948;-1.458;2023-01-29T01:39:11;102798.13;;;10.01;30.59
70571;BME280;58135;50.948;-1.458;2023-01-29T01:40:13;102798.42;;;10.04;30.58
70571;BME280;58135;50.948;-1.458;2023-01-29T01:41:14;102796.32;;;10.06;30.64
70571;BME280;58135;50.948;-1.458;2023-01-29T01:42:13;102794.10;;;9.57;30.57
70571;BME280;58135;50.948;-1.458;2023-01-29T01:43:13;102791.86;;;9.53;30.52
70571;BME280;58135;50.948;-1.458;2023-01-29T01:45:19;102790.50;;;9.76;30.59
70571;BME280;58135;50.948;-1.458;2023-01-29T01:46:15;102789.94;;;9.69;30.68
70571;BME280;58135;50.948;-1.458;2023-01-29T01:47:17;102787.48;;;9.70;30.72
70571;BME280;58135;50.948;-1.458;2023-01-29T01:48:18;102785.41;;;9.29;30.77
70571;BME280;58135;50.948;-1.458;2023-01-29T01:49:18;102786.43;;;9.80;30.76
70571;BME280;58135;50.948;-1.458;2023-01-29T01:50:24;102784.98;;;9.82;30.75
70571;BME280;58135;50.948;-1.458;2023-01-29T01:51:17;102788.75;;;9.85;30.80
70571;BME280;58135;50.948;-1.458;2023-01-29T01:52:16;102785.10;;;9.86;30.68
70571;BME280;58135;50.948;-1.458;2023-01-29T01:53:20;102785.24;;;9.81;30.73
70571;BME280;58135;50.948;-1.458;2023-01-29T01:54:22;102785.37;;;9.35;30.73
70571;BME280;58135;50.948;-1.458;2023-01-29T01:55:20;102785.71;;;9.82;30.74
70571;BME280;58135;50.948;-1.458;2023-01-29T01:56:22;102786.36;;;9.82;30.72
70571;BME280;58135;50.948;-1.458;2023-01-29T01:57:21;102787.46;;;9.81;30.75
70571;BME280;58135;50.948;-1.458;2023-01-29T01:58:22;102786.97;;;9.78;30.76
70571;BME280;58135;50.948;-1.458;2023-01-29T01:59:19;102785.07;;;9.73;30.84
70571;BME280;58135;50.948;-1.458;2023-01-29T02:00:21;102787.98;;;9.66;30.85
70571;BME280;58135;50.948;-1.458;2023-01-29T02:01:22;102786.55;;;9.60;30.85
70571;BME280;58135;50.948;-1.458;2023-01-29T02:02:21;102788.27;;;9.57;30.88
70571;BME280;58135;50.948;-1.458;2023-01-29T02:03:23;102789.08;;;9.62;30.90
70571;BME280;58135;50.948;-1.458;2023-01-29T02:04:24;102792.61;;;9.18;30.83
70571;BME280;58135;50.948;-1.458;2023-01-29T02:05:23;102794.75;;;9.58;30.89
70571;BME280;58135;50.948;-1.458;2023-01-29T02:06:22;102794.61;;;9.49;30.93
70571;BME280;58135;50.948;-1.458;2023-01-29T02:07:23;102795.61;;;9.43;31.01
70571;BME280;58135;50.948;-1.458;2023-01-29T02:08:29;102795.41;;;9.42;31.05
70571;BME280;58135;50.948;-1.458;2023-01-29T02:09:27;102795.93;;;9.43;31.07
70571;BME280;58135;50.948;-1.458;2023-01-29T02:10:26;102794.68;;;9.45;31.10
70571;BME280;58135;50.948;-1.458;2023-01-29T02:11:26;102793.05;;;9.48;31.08
70571;BME280;58135;50.948;-1.458;2023-01-29T02:12:26;102795.17;;;9.55;31.04
70571;BME280;58135;50.948;-1.458;2023-01-29T02:13:27;102793.73;;;9.59;30.96
70571;BME280;58135;50.948;-1.458;2023-01-29T02:14:27;102795.51;;;9.63;30.93
70571;BME280;58135;50.948;-1.458;2023-01-29T02:15:29;102794.71;;;9.68;30.90
70571;BME280;58135;50.948;-1.458;2023-01-29T02:16:28;102790.48;;;9.57;30.67
70571;BME280;58135;50.948;-1.458;2023-01-29T02:17:30;102791.26;;;10.41;30.40
70571;BME280;58135;50.948;-1.458;2023-01-29T02:18:30;102792.74;;;9.82;30.17
70571;BME280;58135;50.948;-1.458;2023-01-29T02:19:38;102792.31;;;10.06;29.96
70571;BME280;58135;50.948;-1.458;2023-01-29T02:20:31;102789.50;;;9.81;29.76
70571;BME280;58135;50.948;-1.458;2023-01-29T02:21:45;102785.64;;;10.45;29.62
70571;BME280;58135;50.948;-1.458;2023-01-29T02:23:02;102783.43;;;10.61;29.48
70571;BME280;58135;50.948;-1.458;2023-01-29T02:24:18;102783.18;;;10.73;29.39
70571;BME280;58135;50.948;-1.458;2023-01-29T02:24:48;102787.21;;;10.81;29.30
70571;BME280;58135;50.948;-1.458;2023-01-29T02:25:46;102789.40;;;9.99;29.25
70571;BME280;58135;50.948;-1.458;2023-01-29T02:26:39;102787.17;;;10.54;29.16
70571;BME280;58135;50.948;-1.458;2023-01-29T02:27:41;102787.40;;;11.09;29.07
70571;BME280;58135;50.948;-1.458;2023-01-29T02:28:37;102785.34;;;11.18;29.00
70571;BME280;58135;50.948;-1.458;2023-01-29T02:29:43;102784.69;;;10.36;28.96
70571;BME280;58135;50.948;-1.458;2023-01-29T02:30:37;102783.79;;;11.32;28.91
70571;BME280;58135;50.948;-1.458;2023-01-29T02:31:40;102782.71;;;10.93;28.86
70571;BME280;58135;50.948;-1.458;2023-01-29T02:32:40;102781.92;;;10.52;28.78
70571;BME280;58135;50.948;-1.458;2023-01-29T02:33:44;102781.21;;;11.02;28.74
70571;BME280;58135;50.948;-1.458;2023-01-29T02:34:46;102779.39;;;10.62;28.69
70571;BME280;58135;50.948;-1.458;2023-01-29T02:35:41;102776.71;;;11.59;28.66
70571;BME280;58135;50.948;-1.458;2023-01-29T02:36:44;102780.86;;;10.77;28.63
70571;BME280;58135;50.948;-1.458;2023-01-29T02:37:45;102783.80;;;10.83;28.57
70571;BME280;58135;50.948;-1.458;2023-01-29T02:38:46;102784.46;;;10.89;28.56
70571;BME280;58135;50.948;-1.458;2023-01-29T02:39:44;102782.70;;;10.90;28.45
70571;BME280;58135;50.948;-1.458;2023-01-29T02:40:43;102780.10;;;10.88;28.42
70571;BME280;58135;50.948;-1.458;2023-01-29T02:41:44;102779.87;;;10.87;28.36
70571;BME280;58135;50.948;-1.458;2023-01-29T02:42:47;102779.17;;;11.28;28.36
70571;BME280;58135;50.948;-1.458;2023-01-29T02:43:45;102777.95;;;11.23;28.31
70571;BME280;58135;50.948;-1.458;2023-01-29T02:44:45;102775.87;;;11.18;28.35
70571;BME280;58135;50.948;-1.458;2023-01-29T02:45:47;102774.62;;;10.68;28.43
70571;BME280;58135;50.948;-1.458;2023-01-29T02:46:47;102776.07;;;10.73;28.47
70571;BME280;58135;50.948;-1.458;2023-01-29T02:47:47;102775.81;;;10.79;28.44
70571;BME280;58135;50.948;-1.458;2023-01-29T02:48:51;102777.29;;;10.83;28.41
70571;BME280;58135;50.948;-1.458;2023-01-29T02:49:47;102776.02;;;10.85;28.39
70571;BME280;58135;50.948;-1.458;2023-01-29T02:50:48;102773.30;;;10.85;28.34
70571;BME280;58135;50.948;-1.458;2023-01-29T02:51:52;102774.22;;;10.86;28.34
70571;BME280;58135;50.948;-1.458;2023-01-29T02:52:53;102774.77;;;10.40;28.34
70571;BME280;58135;50.948;-1.458;2023-01-29T02:53:52;102774.04;;;10.86;28.32
70571;BME280;58135;50.948;-1.458;2023-01-29T02:54:52;102776.41;;;10.88;28.33
70571;BME280;58135;50.948;-1.458;2023-01-29T02:55:51;102779.12;;;10.91;28.33
70571;BME280;58135;50.948;-1.458;2023-01-29T02:56:51;102780.66;;;11.86;28.32
70571;BME280;58135;50.948;-1.458;2023-01-29T02:57:51;102783.27;;;10.93;28.27
70571;BME280;58135;50.948;-1.458;2023-01-29T02:58:53;102783.81;;;10.90;28.26
70571;BME280;58135;50.948;-1.458;2023-01-29T02:59:53;102786.51;;;11.34;28.27
70571;BME280;58135;50.948;-1.458;2023-01-29T03:00:51;102784.98;;;10.86;28.27
70571;BME280;58135;50.948;-1.458;2023-01-29T03:01:53;102785.14;;;11.30;28.30
70571;BME280;58135;50.948;-1.458;2023-01-29T03:02:55;102781.68;;;11.31;28.29
70571;BME280;58135;50.948;-1.458;2023-01-29T03:03:52;102778.91;;;10.88;28.28
70571;BME280;58135;50.948;-1.458;2023-01-29T03:04:56;102775.79;;;10.88;28.31
70571;BME280;58135;50.948;-1.458;2023-01-29T03:05:58;102774.24;;;10.45;28.30
70571;BME280;58135;50.948;-1.458;2023-01-29T03:06:54;102776.31;;;10.91;28.30
70571;BME280;58135;50.948;-1.458;2023-01-29T03:07:57;102777.03;;;10.91;28.32
70571;BME280;58135;50.948;-1.458;2023-01-29T03:08:58;102775.87;;;10.84;28.28
70571;BME280;58135;50.948;-1.458;2023-01-29T03:09:55;102774.18;;;10.82;28.31
70571;BME280;58135;50.948;-1.458;2023-01-29T03:10:59;102775.00;;;10.82;28.34
70571;BME280;58135;50.948;-1.458;2023-01-29T03:11:58;102774.55;;;10.79;28.35
70571;BME280;58135;50.948;-1.458;2023-01-29T03:12:59;102773.76;;;10.79;28.38
70571;BME280;58135;50.948;-1.458;2023-01-29T03:13:58;102772.37;;;10.81;28.38
70571;BME280;58135;50.948;-1.458;2023-01-29T03:14:57;102773.20;;;10.39;28.37
70571;BME280;58135;50.948;-1.458;2023-01-29T03:15:59;102772.02;;;10.91;28.34
70571;BME280;58135;50.948;-1.458;2023-01-29T03:16:57;102770.18;;;10.94;28.30
70571;BME280;58135;50.948;-1.458;2023-01-29T03:18:02;102767.70;;;10.98;28.30
70571;BME280;58135;50.948;-1.458;2023-01-29T03:19:01;102768.25;;;10.94;28.30
70571;BME280;58135;50.948;-1.458;2023-01-29T03:20:00;102769.35;;;10.51;28.31
70571;BME280;58135;50.948;-1.458;2023-01-29T03:21:02;102765.86;;;11.00;28.30
70571;BME280;58135;50.948;-1.458;2023-01-29T03:22:01;102765.42;;;11.03;28.28
70571;BME280;58135;50.948;-1.458;2023-01-29T03:23:04;102764.02;;;11.06;28.27
70571;BME280;58135;50.948;-1.458;2023-01-29T03:24:03;102765.94;;;11.08;28.27
70571;BME280;58135;50.948;-1.458;2023-01-29T03:25:04;102764.99;;;10.64;28.29
70571;BME280;58135;50.948;-1.458;2023-01-29T03:26:03;102762.41;;;10.65;28.28
70571;BME280;58135;50.948;-1.458;2023-01-29T03:27:05;102762.20;;;11.12;28.27
70571;BME280;58135;50.948;-1.458;2023-01-29T03:28:05;102757.67;;;10.67;28.27
70571;BME280;58135;50.948;-1.458;2023-01-29T03:29:05;102755.19;;;10.65;28.27
70571;BME280;58135;50.948;-1.458;2023-01-29T03:30:07;102751.03;;;11.06;28.19
70571;BME280;58135;50.948;-1.458;2023-01-29T03:31:08;102749.07;;;11.01;28.23
70571;BME280;58135;50.948;-1.458;2023-01-29T03:32:06;102751.09;;;11.92;28.25
70571;BME280;58135;50.948;-1.458;2023-01-29T03:33:08;102750.83;;;10.97;28.26
70571;BME280;58135;50.948;-1.458;2023-01-29T03:34:11;102750.59;;;10.97;28.27
70571;BME280;58135;50.948;-1.458;2023-01-29T03:35:08;102749.07;;;10.98;28.26
70571;BME280;58135;50.948;-1.458;2023-01-29T03:36:12;102747.31;;;10.98;28.24
70571;BME280;58135;50.948;-1.458;2023-01-29T03:37:12;102743.88;;;10.98;28.27
70571;BME280;58135;50.948;-1.458;2023-01-29T03:38:10;102741.18;;;10.97;28.23
70571;BME280;58135;50.948;-1.458;2023-01-29T03:39:09;102739.00;;;10.95;28.26
70571;BME280;58135;50.948;-1.458;2023-01-29T03:40:10;102736.47;;;11.38;28.30
70571;BME280;58135;50.948;-1.458;2023-01-29T03:41:24;102738.09;;;10.94;28.32
70571;BME280;58135;50.948;-1.458;2023-01-29T03:42:16;102738.42;;;10.94;28.32
70571;BME280;58135;50.948;-1.458;2023-01-29T03:43:16;102735.39;;;10.92;28.35
70571;BME280;58135;50.948;-1.458;2023-01-29T03:44:14;102734.81;;;10.47;28.36
70571;BME280;58135;50.948;-1.458;2023-01-29T03:45:15;102735.78;;;10.50;28.36
70571;BME280;58135;50.948;-1.458;2023-01-29T03:46:18;102734.08;;;10.97;28.35
70571;BME280;58135;50.948;-1.458;2023-01-29T03:47:17;102732.14;;;10.98;28.35
70571;BME280;58135;50.948;-1.458;2023-01-29T03:48:17;102730.18;;;10.98;28.35
70571;BME280;58135;50.948;-1.458;2023-01-29T03:49:19;102725.08;;;10.95;28.36
70571;BME280;58135;50.948;-1.458;2023-01-29T03:50:23;102723.22;;;10.89;28.37
70571;BME280;58135;50.948;-1.458;2023-01-29T03:51:18;102725.60;;;10.84;28.39
70571;BME280;58135;50.948;-1.458;2023-01-29T03:52:18;102723.57;;;10.38;28.42
70571;BME280;58135;50.948;-1.458;2023-01-29T03:53:22;102721.77;;;10.84;28.45
70571;BME280;58135;50.948;-1.458;2023-01-29T03:54:22;102724.23;;;10.84;28.45
70571;BME280;58135;50.948;-1.458;2023-01-29T03:55:19;102724.57;;;10.82;28.45
70571;BME280;58135;50.948;-1.458;2023-01-29T03:56:27;102725.33;;;10.80;28.49
70571;BME280;58135;50.948;-1.458;2023-01-29T03:57:23;102727.58;;;10.81;28.55
70571;BME280;58135;50.948;-1.458;2023-01-29T03:58:22;102729.53;;;10.78;28.61
70571;BME280;58135;50.948;-1.458;2023-01-29T03:59:24;102727.87;;;10.80;28.59
70571;BME280;58135;50.948;-1.458;2023-01-29T04:00:21;102727.88;;;10.82;28.53
70571;BME280;58135;50.948;-1.458;2023-01-29T04:01:21;102727.78;;;10.81;28.52
70571;BME280;58135;50.948;-1.458;2023-01-29T04:02:21;102726.48;;;10.82;28.52
70571;BME280;58135;50.948;-1.458;2023-01-29T04:03:20;102727.87;;;10.84;28.53
70571;BME280;58135;50.948;-1.458;2023-01-29T04:04:23;102727.73;;;10.83;28.53
70571;BME280;58135;50.948;-1.458;2023-01-29T04:05:24;102728.21;;;10.87;28.50
70571;BME280;58135;50.948;-1.458;2023-01-29T04:06:22;102727.72;;;10.88;28.50
70571;BME280;58135;50.948;-1.458;2023-01-29T04:07:20;102727.58;;;11.33;28.52
70571;BME280;58135;50.948;-1.458;2023-01-29T04:08:24;102727.87;;;11.78;28.49
70571;BME280;58135;50.948;-1.458;2023-01-29T04:09:27;102725.58;;;10.86;28.53
70571;BME280;58135;50.948;-1.458;2023-01-29T04:10:26;102724.24;;;10.88;28.53
70571;BME280;58135;50.948;-1.458;2023-01-29T04:11:24;102724.03;;;10.90;28.53
70571;BME280;58135;50.948;-1.458;2023-01-29T04:12:25;102724.43;;;10.91;28.52
70571;BME280;58135;50.948;-1.458;2023-01-29T04:13:24;102724.00;;;10.91;28.52
70571;BME280;58135;50.948;-1.458;2023-01-29T04:14:24;102723.12;;;10.91;28.52
70571;BME280;58135;50.948;-1.458;2023-01-29T04:15:27;102723.12;;;10.91;28.52
70571;BME280;58135;50.948;-1.458;2023-01-29T04:16:27;102723.16;;;11.35;28.51
70571;BME280;58135;50.948;-1.458;2023-01-29T04:17:30;102719.76;;;10.88;28.50
70571;BME280;58135;50.948;-1.458;2023-01-29T04:18:25;102721.93;;;10.91;28.47
70571;BME280;58135;50.948;-1.458;2023-01-29T04:19:25;102721.70;;;10.93;28.47
70571;BME280;58135;50.948;-1.458;2023-01-29T04:20:26;102720.51;;;10.96;28.46
70571;BME280;58135;50.948;-1.458;2023-01-29T04:21:26;102720.24;;;10.96;28.46
70571;BME280;58135;50.948;-1.458;2023-01-29T04:22:31;102720.49;;;10.95;28.48
70571;BME280;58135;50.948;-1.458;2023-01-29T04:23:26;102720.91;;;10.94;28.49
70571;BME280;58135;50.948;-1.458;2023-01-29T04:24:26;102720.63;;;10.89;28.52
70571;BME280;58135;50.948;-1.458;2023-01-29T04:25:30;102722.58;;;10.87;28.54
70571;BME280;58135;50.948;-1.458;2023-01-29T04:26:39;102724.37;;;10.88;28.57
70571;BME280;58135;50.948;-1.458;2023-01-29T04:27:36;102725.27;;;10.89;28.57
70571;BME280;58135;50.948;-1.458;2023-01-29T04:28:43;102725.12;;;10.90;28.56
70571;BME280;58135;50.948;-1.458;2023-01-29T04:29:40;102724.93;;;10.89;28.56
70571;BME280;58135;50.948;-1.458;2023-01-29T04:30:39;102727.30;;;10.87;28.56
70571;BME280;58135;50.948;-1.458;2023-01-29T04:32:40;102727.64;;;11.39;28.80
70571;BME280;58135;50.948;-1.458;2023-01-29T04:33:36;102728.56;;;11.08;29.07
70571;BME280;58135;50.948;-1.458;2023-01-29T04:34:44;102728.13;;;11.30;29.27
70571;BME280;58135;50.948;-1.458;2023-01-29T04:35:44;102729.44;;;10.62;29.43
70571;BME280;58135;50.948;-1.458;2023-01-29T04:36:38;102729.96;;;10.43;29.59
70571;BME280;58135;50.948;-1.458;2023-01-29T04:37:38;102729.66;;;10.75;29.75
70571;BME280;58135;50.948;-1.458;2023-01-29T04:38:46;102729.18;;;10.63;29.86
70571;BME280;58135;50.948;-1.458;2023-01-29T04:39:41;102725.65;;;10.52;29.99
70571;BME280;58135;50.948;-1.458;2023-01-29T04:40:42;102721.75;;;10.88;30.11
70571;BME280;58135;50.948;-1.458;2023-01-29T04:41:37;102720.10;;;9.86;30.22
70571;BME280;58135;50.948;-1.458;2023-01-29T04:42:43;102718.23;;;10.67;30.31
70571;BME280;58135;50.948;-1.458;2023-01-29T04:43:43;102717.88;;;10.60;30.41
70571;BME280;58135;50.948;-1.458;2023-01-29T04:44:40;102714.98;;;10.07;30.52
70571;BME280;58135;50.948;-1.458;2023-01-29T04:45:46;102716.04;;;10.44;30.58
70571;BME280;58135;50.948;-1.458;2023-01-29T04:46:46;102717.21;;;9.91;30.61
70571;BME280;58135;50.948;-1.458;2023-01-29T04:47:48;102713.97;;;10.30;30.67
70571;BME280;58135;50.948;-1.458;2023-01-29T04:48:47;102711.33;;;10.25;30.72
70571;BME280;58135;50.948;-1.458;2023-01-29T04:49:45;102711.00;;;9.75;30.76
70571;BME280;58135;50.948;-1.458;2023-01-29T04:50:46;102709.64;;;9.72;30.79
70571;BME280;58135;50.948;-1.458;2023-01-29T04:51:47;102707.74;;;10.13;30.82
70571;BME280;58135;50.948;-1.458;2023-01-29T04:52:46;102703.32;;;10.08;30.85
70571;BME280;58135;50.948;-1.458;2023-01-29T04:53:46;102702.73;;;9.58;30.89
70571;BME280;58135;50.948;-1.458;2023-01-29T04:54:52;102699.28;;;9.99;30.94
70571;BME280;58135;50.948;-1.458;2023-01-29T04:55:46;102701.64;;;9.96;30.98
70571;BME280;58135;50.948;-1.458;2023-01-29T04:56:50;102701.97;;;9.96;31.00
70571;BME280;58135;50.948;-1.458;2023-01-29T04:57:48;102700.18;;;9.49;31.01
70571;BME280;58135;50.948;-1.458;2023-01-29T04:58:47;102699.00;;;9.95;31.05
70571;BME280;58135;50.948;-1.458;2023-01-29T04:59:47;102701.15;;;9.50;31.06
70571;BME280;58135;50.948;-1.458;2023-01-29T05:00:48;102701.96;;;9.96;31.09
70571;BME280;58135;50.948;-1.458;2023-01-29T05:01:46;102701.08;;;9.96;31.09
70571;BME280;58135;50.948;-1.458;2023-01-29T05:02:47;102699.73;;;9.95;31.13
70571;BME280;58135;50.948;-1.458;2023-01-29T05:03:49;102698.65;;;9.92;31.14
70571;BME280;58135;50.948;-1.458;2023-01-29T05:04:47;102696.41;;;9.88;31.23
70571;BME280;58135;50.948;-1.458;2023-01-29T05:05:49;102694.56;;;10.29;31.23
70571;BME280;58135;50.948;-1.458;2023-01-29T05:06:48;102693.71;;;9.36;31.25
70571;BME280;58135;50.948;-1.458;2023-01-29T05:07:49;102690.85;;;9.35;31.27
70571;BME280;58135;50.948;-1.458;2023-01-29T05:08:50;102688.69;;;9.78;31.29
70571;BME280;58135;50.948;-1.458;2023-01-29T05:09:50;102686.27;;;9.76;31.29
70571;BME280;58135;50.948;-1.458;2023-01-29T05:10:52;102688.70;;;9.78;31.29
70571;BME280;58135;50.948;-1.458;2023-01-29T05:11:51;102689.18;;;9.80;31.29
70571;BME280;58135;50.948;-1.458;2023-01-29T05:12:57;102687.86;;;9.80;31.28
70571;BME280;58135;50.948;-1.458;2023-01-29T05:13:52;102688.04;;;9.36;31.29
70571;BME280;58135;50.948;-1.458;2023-01-29T05:14:52;102686.26;;;9.84;31.27
70571;BME280;58135;50.948;-1.458;2023-01-29T05:15:55;102687.72;;;9.85;31.28